Time;durP1;ratioP1;P1;durP2;ratioP2;P2;SDS_P1;SDS_P2;PMS_P1;PMS_P2;Temp;Humidity;BMP_temperature;BMP_pressure;BME280_temperature;BME280_humidity;BME280_pressure;Samples;Min_cycle;Max_cycle;Signal;HPM_P1;HPM_P2
2022/06/15 00:00:35;;;;;;;;;;;12.60;99.90;;;;;;4996379;28;19976;-81
2022/06/15 00:03:01;;;;;;;;;;;12.60;99.90;;;;;;4996343;28;19976;-81
2022/06/15 00:05:27;;;;;;;;;;;12.50;99.90;;;;;;4996686;28;19928;-81
2022/06/15 00:07:53;;;;;;;;;;;12.50;99.90;;;;;;4996359;28;20017;-82
2022/06/15 00:10:19;;;;;;;;;;;12.50;99.90;;;;;;4996485;28;19926;-81
2022/06/15 00:12:45;;;;;;;;;;;12.40;99.90;;;;;;4996523;28;19926;-81
2022/06/15 00:15:10;;;;;;;;;;;12.40;99.90;;;;;;4980445;28;19979;-81
2022/06/15 00:17:36;;;;;;;;;;;12.40;99.90;;;;;;4996527;28;20377;-81
2022/06/15 00:20:02;;;;;;;;;;;12.40;99.90;;;;;;4996432;28;20024;-81
2022/06/15 00:22:28;;;;;;;;;;;12.40;99.90;;;;;;5012822;28;20016;-81
2022/06/15 00:24:53;;;;;;;;;;;12.40;99.90;;;;;;5012595;28;20032;-81
2022/06/15 00:27:19;;;;;;;;;;;12.30;99.90;;;;;;4979920;28;19949;-81
2022/06/15 00:29:44;;;;;;;;;;;12.30;99.90;;;;;;5012726;28;19929;-81
2022/06/15 00:32:11;;;;;;;;;;;12.30;99.90;;;;;;4996011;28;19975;-81
2022/06/15 00:34:37;;;;;;;;;;;12.30;99.90;;;;;;4980664;28;19933;-81
2022/06/15 00:37:04;;;;;;;;;;;12.30;99.90;;;;;;5012376;28;19926;-81
2022/06/15 00:39:30;;;;;;;;;;;12.30;99.90;;;;;;4980398;28;19936;-81
2022/06/15 00:41:56;;;;;;;;;;;12.20;99.90;;;;;;4996631;28;19925;-81
2022/06/15 00:44:22;;;;;;;;;;;12.20;99.90;;;;;;4996270;28;19925;-82
2022/06/15 00:46:49;;;;;;;;;;;12.20;99.90;;;;;;5012514;28;20067;-81
2022/06/15 00:49:20;;;;;;;;;;;12.20;99.90;;;;;;5012573;28;19976;-82
2022/06/15 00:51:51;;;;;;;;;;;12.10;99.90;;;;;;5012473;28;20293;-81
2022/06/15 00:54:17;;;;;;;;;;;12.10;99.90;;;;;;5013733;28;19929;-81
2022/06/15 00:56:43;;;;;;;;;;;12.00;99.90;;;;;;4983772;28;20345;-81
2022/06/15 00:59:12;;;;;;;;;;;12.10;99.90;;;;;;4999678;28;19948;-81
2022/06/15 01:01:37;;;;;;;;;;;12.10;99.90;;;;;;5015786;28;19928;-84
2022/06/15 01:04:03;;;;;;;;;;;12.10;99.90;;;;;;4999269;28;19926;-81
2022/06/15 01:06:29;;;;;;;;;;;12.10;99.90;;;;;;5015482;28;19933;-81
2022/06/15 01:08:58;;;;;;;;;;;12.10;99.90;;;;;;5015421;28;19988;-81
2022/06/15 01:11:34;;;;;;;;;;;12.00;99.90;;;;;;5015574;28;19925;-81
2022/06/15 01:14:12;;;;;;;;;;;12.10;99.90;;;;;;5016528;28;19925;-81
2022/06/15 01:16:56;;;;;;;;;;;12.10;99.90;;;;;;5016184;28;19932;-81
2022/06/15 01:19:54;;;;;;;;;;;12.10;99.90;;;;;;5015585;28;19932;-81
2022/06/15 01:22:41;;;;;;;;;;;12.10;99.90;;;;;;5014759;28;19980;-81
2022/06/15 01:25:13;;;;;;;;;;;12.10;99.90;;;;;;5016281;28;20254;-81
2022/06/15 01:27:42;;;;;;;;;;;12.10;99.90;;;;;;5015483;28;20025;-81
2022/06/15 01:30:07;;;;;;;;;;;12.10;99.90;;;;;;4998891;28;20032;-82
2022/06/15 01:32:51;;;;;;;;;;;12.20;99.90;;;;;;5015314;28;20016;-81
2022/06/15 01:35:36;;;;;;;;;;;12.20;99.90;;;;;;4998895;28;19985;-81
2022/06/15 01:38:20;;;;;;;;;;;12.10;99.90;;;;;;4998904;28;19926;-81
2022/06/15 01:40:49;;;;;;;;;;;12.20;99.90;;;;;;5015975;28;20270;-81
2022/06/15 01:43:17;;;;;;;;;;;12.20;99.90;;;;;;4998837;28;20063;-88
2022/06/15 01:45:44;;;;;;;;;;;12.10;99.90;;;;;;5015107;28;19926;-81
2022/06/15 01:48:11;;;;;;;;;;;12.10;99.90;;;;;;4998363;28;19930;-81
2022/06/15 01:50:42;;;;;;;;;;;12.00;99.90;;;;;;4998502;28;19932;-81
2022/06/15 01:53:08;;;;;;;;;;;12.10;99.90;;;;;;5015212;28;19933;-81
2022/06/15 01:55:38;;;;;;;;;;;12.10;99.90;;;;;;5014885;28;19925;-81
2022/06/15 01:58:07;;;;;;;;;;;12.10;99.90;;;;;;4998427;28;20435;-81
2022/06/15 02:00:32;;;;;;;;;;;12.10;99.90;;;;;;5014972;28;19925;-81
2022/06/15 02:03:07;;;;;;;;;;;12.10;99.90;;;;;;5014679;28;20005;-82
2022/06/15 02:05:48;;;;;;;;;;;12.10;99.90;;;;;;5014861;28;19925;-81
2022/06/15 02:08:20;;;;;;;;;;;12.00;99.90;;;;;;4999127;28;19925;-81
2022/06/15 02:10:52;;;;;;;;;;;12.10;99.90;;;;;;5014667;28;19925;-81
2022/06/15 02:13:17;;;;;;;;;;;12.10;99.90;;;;;;4998694;28;19925;-85
2022/06/15 02:15:44;;;;;;;;;;;12.10;99.90;;;;;;4998394;28;19929;-81
2022/06/15 02:18:12;;;;;;;;;;;12.00;99.90;;;;;;5015201;28;19952;-81
2022/06/15 02:20:40;;;;;;;;;;;11.90;99.90;;;;;;5014362;28;20373;-82
2022/06/15 02:23:07;;;;;;;;;;;11.80;99.90;;;;;;4997633;28;19948;-81
2022/06/15 02:25:37;;;;;;;;;;;11.90;99.90;;;;;;5015009;28;19925;-81
2022/06/15 02:28:03;;;;;;;;;;;11.80;99.90;;;;;;4998656;28;19926;-82
2022/06/15 02:30:30;;;;;;;;;;;11.90;99.90;;;;;;5014835;28;20380;-82
2022/06/15 02:32:55;;;;;;;;;;;11.80;99.90;;;;;;5014178;28;19980;-81
2022/06/15 02:35:21;;;;;;;;;;;11.80;99.90;;;;;;5014584;28;19973;-83
2022/06/15 02:37:48;;;;;;;;;;;11.80;99.90;;;;;;4997698;28;20044;-81
2022/06/15 02:40:15;;;;;;;;;;;11.80;99.90;;;;;;5014831;28;20289;-81
2022/06/15 02:42:41;;;;;;;;;;;11.80;99.90;;;;;;5014001;28;19925;-81
2022/06/15 02:45:17;;;;;;;;;;;11.90;99.90;;;;;;4997677;28;20250;-81
2022/06/15 02:47:42;;;;;;;;;;;11.90;99.90;;;;;;4997554;28;19921;-81
2022/06/15 02:50:09;;;;;;;;;;;11.80;99.90;;;;;;4981513;28;20496;-82
2022/06/15 02:52:38;;;;;;;;;;;11.80;99.90;;;;;;4998228;28;19926;-81
2022/06/15 02:55:04;;;;;;;;;;;11.80;99.90;;;;;;4997374;28;19926;-81
2022/06/15 02:57:29;;;;;;;;;;;11.80;99.90;;;;;;5013730;28;19925;-81
2022/06/15 02:59:55;;;;;;;;;;;11.80;99.90;;;;;;5014492;28;19929;-81
2022/06/15 03:02:21;;;;;;;;;;;11.80;99.90;;;;;;4981200;28;19934;-81
2022/06/15 03:04:47;;;;;;;;;;;11.80;99.90;;;;;;4997291;28;19937;-82
2022/06/15 03:07:13;;;;;;;;;;;11.90;99.90;;;;;;4997479;28;19984;-81
2022/06/15 03:09:39;;;;;;;;;;;11.90;99.90;;;;;;5013583;28;19926;-81
2022/06/15 03:12:05;;;;;;;;;;;11.80;99.90;;;;;;5014468;28;19995;-81
2022/06/15 03:14:31;;;;;;;;;;;11.90;99.90;;;;;;4997179;28;19930;-81
2022/06/15 03:17:00;;;;;;;;;;;11.90;99.90;;;;;;4996649;28;20365;-81
2022/06/15 03:19:25;;;;;;;;;;;12.00;99.90;;;;;;4997257;28;20343;-81
2022/06/15 03:21:51;;;;;;;;;;;12.00;99.90;;;;;;5013444;28;19926;-81
2022/06/15 03:24:16;;;;;;;;;;;12.10;99.90;;;;;;4996355;28;19941;-81
2022/06/15 03:26:42;;;;;;;;;;;12.10;99.90;;;;;;4996981;28;19925;-82
2022/06/15 03:29:08;;;;;;;;;;;12.10;99.90;;;;;;4996717;28;20404;-81
2022/06/15 03:31:33;;;;;;;;;;;12.10;99.90;;;;;;4996904;28;19932;-81
2022/06/15 03:33:59;;;;;;;;;;;12.10;99.90;;;;;;4996924;28;19925;-81
2022/06/15 03:36:24;;;;;;;;;;;12.10;99.90;;;;;;4996555;28;19926;-81
2022/06/15 03:38:50;;;;;;;;;;;12.10;99.90;;;;;;5013947;28;20027;-81
2022/06/15 03:41:16;;;;;;;;;;;12.10;99.90;;;;;;5013460;28;19933;-81
2022/06/15 03:43:43;;;;;;;;;;;12.10;99.90;;;;;;4997090;28;19933;-81
2022/06/15 03:46:10;;;;;;;;;;;12.10;99.90;;;;;;4997307;28;19932;-81
2022/06/15 03:48:35;;;;;;;;;;;12.10;99.90;;;;;;4997038;28;19933;-81
2022/06/15 03:51:01;;;;;;;;;;;12.20;99.90;;;;;;4996272;28;20309;-81
2022/06/15 03:53:26;;;;;;;;;;;12.20;99.90;;;;;;4980602;28;19932;-81
2022/06/15 03:55:52;;;;;;;;;;;12.30;99.90;;;;;;5013070;28;19925;-83
2022/06/15 03:58:18;;;;;;;;;;;12.30;99.90;;;;;;4996732;28;19926;-82
2022/06/15 04:00:44;;;;;;;;;;;12.30;99.90;;;;;;4996380;28;20385;-81
2022/06/15 04:03:10;;;;;;;;;;;12.40;99.90;;;;;;4996937;28;19980;-81
2022/06/15 04:05:41;;;;;;;;;;;12.40;99.90;;;;;;4996618;28;20040;-81
2022/06/15 04:10:50;;;;;;;;;;;12.40;99.90;;;;;;5012982;28;19984;-81
2022/06/15 04:13:20;;;;;;;;;;;12.40;99.90;;;;;;5013199;28;20285;-81
2022/06/15 04:15:46;;;;;;;;;;;12.40;99.90;;;;;;5012875;28;19925;-81
2022/06/15 04:18:12;;;;;;;;;;;12.40;99.90;;;;;;5012885;28;19932;-81
2022/06/15 04:20:37;;;;;;;;;;;12.50;99.90;;;;;;4996552;28;20072;-81
2022/06/15 04:23:05;;;;;;;;;;;12.50;99.90;;;;;;4980035;28;20286;-81
2022/06/15 04:25:33;;;;;;;;;;;12.60;99.90;;;;;;4996684;28;20423;-81
2022/06/15 04:27:58;;;;;;;;;;;12.60;99.90;;;;;;5012767;28;19948;-81
2022/06/15 04:30:25;;;;;;;;;;;12.70;99.90;;;;;;4999632;28;19995;-81
2022/06/15 04:32:51;;;;;;;;;;;12.70;99.90;;;;;;5016442;28;19976;-81
2022/06/15 04:35:17;;;;;;;;;;;12.70;99.90;;;;;;4999898;28;19925;-81
2022/06/15 04:37:42;;;;;;;;;;;12.80;99.90;;;;;;5016351;28;19926;-81
2022/06/15 04:40:08;;;;;;;;;;;12.90;99.90;;;;;;5017159;28;19991;-81
2022/06/15 04:42:35;;;;;;;;;;;12.90;99.90;;;;;;4999943;28;19948;-81
2022/06/15 04:45:01;;;;;;;;;;;12.90;99.90;;;;;;4999628;28;19929;-81
2022/06/15 04:47:26;;;;;;;;;;;13.00;99.90;;;;;;5016955;28;19925;-81
2022/06/15 04:49:52;;;;;;;;;;;13.10;99.90;;;;;;5016078;28;20368;-82
2022/06/15 04:52:17;;;;;;;;;;;13.10;99.90;;;;;;5016442;28;20357;-81
2022/06/15 04:54:43;;;;;;;;;;;13.20;99.90;;;;;;5000478;28;20288;-81
2022/06/15 04:57:08;;;;;;;;;;;13.20;99.90;;;;;;4984258;28;19925;-82
2022/06/15 04:59:34;;;;;;;;;;;13.30;99.90;;;;;;4999676;28;19932;-81
2022/06/15 05:01:59;;;;;;;;;;;13.30;99.90;;;;;;5015949;28;19983;-81
2022/06/15 05:04:28;;;;;;;;;;;13.40;99.90;;;;;;4999498;28;20020;-81
2022/06/15 05:06:53;;;;;;;;;;;13.50;99.90;;;;;;4983658;28;20281;-81
2022/06/15 05:09:19;;;;;;;;;;;13.50;99.90;;;;;;4999448;28;19933;-81
2022/06/15 05:11:45;;;;;;;;;;;13.60;99.90;;;;;;4999160;28;19947;-81
2022/06/15 05:14:10;;;;;;;;;;;13.70;99.90;;;;;;4999112;28;19929;-81
2022/06/15 05:16:37;;;;;;;;;;;13.70;99.90;;;;;;4999356;28;19926;-80
2022/06/15 05:19:02;;;;;;;;;;;13.80;99.90;;;;;;5015577;28;20369;-80
2022/06/15 05:21:28;;;;;;;;;;;13.90;99.90;;;;;;5015265;28;19925;-81
2022/06/15 05:23:54;;;;;;;;;;;14.00;99.90;;;;;;4998528;28;19945;-81
2022/06/15 05:26:24;;;;;;;;;;;14.10;99.90;;;;;;5016314;28;19925;-81
2022/06/15 05:28:50;;;;;;;;;;;14.20;99.90;;;;;;4999149;28;19929;-81
2022/06/15 05:31:18;;;;;;;;;;;14.30;99.90;;;;;;4998887;28;19948;-81
2022/06/15 05:33:44;;;;;;;;;;;14.40;99.90;;;;;;5015339;28;19925;-81
2022/06/15 05:36:11;;;;;;;;;;;14.50;99.90;;;;;;4999200;28;20330;-81
2022/06/15 05:38:36;;;;;;;;;;;14.60;99.90;;;;;;4998710;28;20253;-81
2022/06/15 05:41:03;;;;;;;;;;;14.70;99.90;;;;;;4998484;28;20016;-81
2022/06/15 05:43:30;;;;;;;;;;;14.90;99.90;;;;;;4999114;28;19926;-81
2022/06/15 05:45:56;;;;;;;;;;;15.00;99.90;;;;;;4983071;28;19925;-81
2022/06/15 05:48:22;;;;;;;;;;;15.20;99.90;;;;;;5015032;28;20372;-81
2022/06/15 05:50:47;;;;;;;;;;;15.20;99.90;;;;;;5014880;28;19925;-81
2022/06/15 05:53:13;;;;;;;;;;;15.40;99.90;;;;;;5014984;28;19931;-81
2022/06/15 05:55:38;;;;;;;;;;;15.50;99.90;;;;;;4998618;28;19925;-81
2022/06/15 05:58:05;;;;;;;;;;;15.60;99.90;;;;;;4998577;28;19921;-81
2022/06/15 06:00:31;;;;;;;;;;;15.70;99.90;;;;;;4998520;28;20020;-80
2022/06/15 06:02:57;;;;;;;;;;;15.80;99.90;;;;;;4998081;28;19926;-81
2022/06/15 06:05:23;;;;;;;;;;;15.80;99.90;;;;;;4998651;28;19922;-84
2022/06/15 06:07:49;;;;;;;;;;;16.00;99.90;;;;;;5014555;28;20449;-81
2022/06/15 06:10:14;;;;;;;;;;;16.00;99.90;;;;;;4998229;28;19977;-81
2022/06/15 06:12:40;;;;;;;;;;;16.10;99.90;;;;;;5014568;28;19930;-80
2022/06/15 06:15:06;;;;;;;;;;;16.20;99.90;;;;;;4998142;28;19927;-81
2022/06/15 06:17:31;;;;;;;;;;;16.30;99.90;;;;;;5014500;28;19926;-87
2022/06/15 06:19:57;;;;;;;;;;;16.40;99.90;;;;;;5014639;28;20278;-81
2022/06/15 06:22:23;;;;;;;;;;;16.40;99.90;;;;;;4998092;28;19925;-82
2022/06/15 06:24:48;;;;;;;;;;;16.50;99.90;;;;;;4981557;28;20272;-88
2022/06/15 06:27:14;;;;;;;;;;;16.60;99.90;;;;;;5014316;28;19985;-84
2022/06/15 06:29:40;;;;;;;;;;;16.70;99.90;;;;;;5013922;28;20031;-79
2022/06/15 06:32:06;;;;;;;;;;;16.80;99.90;;;;;;5014154;28;20024;-80
2022/06/15 06:34:32;;;;;;;;;;;17.00;99.90;;;;;;5014920;28;19979;-81
2022/06/15 06:36:58;;;;;;;;;;;17.10;99.90;;;;;;5014088;28;19976;-81
2022/06/15 06:39:26;;;;;;;;;;;17.20;99.90;;;;;;5014185;28;19931;-80
2022/06/15 06:41:52;;;;;;;;;;;17.20;99.90;;;;;;5013859;28;19932;-81
2022/06/15 06:44:17;;;;;;;;;;;17.20;99.90;;;;;;4998346;28;19925;-81
2022/06/15 06:46:44;;;;;;;;;;;17.30;99.90;;;;;;4997860;28;19954;-81
2022/06/15 06:49:10;;;;;;;;;;;17.30;99.90;;;;;;4997709;28;19983;-79
2022/06/15 06:51:36;;;;;;;;;;;17.30;99.90;;;;;;5013085;28;19929;-80
2022/06/15 06:54:02;;;;;;;;;;;17.40;99.90;;;;;;5014095;28;20272;-80
2022/06/15 06:56:28;;;;;;;;;;;17.50;99.90;;;;;;5013787;28;19931;-80
2022/06/15 06:58:54;;;;;;;;;;;17.60;99.90;;;;;;5013706;28;20339;-82
2022/06/15 07:01:19;;;;;;;;;;;17.60;99.90;;;;;;5013710;28;19925;-81
2022/06/15 07:03:45;;;;;;;;;;;17.70;99.90;;;;;;4997299;28;19940;-82
2022/06/15 07:06:11;;;;;;;;;;;17.70;99.90;;;;;;5013624;28;20380;-81
2022/06/15 07:08:38;;;;;;;;;;;17.80;99.90;;;;;;4996642;28;19932;-82
2022/06/15 07:11:07;;;;;;;;;;;17.80;99.90;;;;;;4997305;28;20289;-83
2022/06/15 07:13:33;;;;;;;;;;;17.80;99.90;;;;;;4997320;28;19925;-83
2022/06/15 07:16:02;;;;;;;;;;;17.80;99.90;;;;;;4997082;28;19932;-87
2022/06/15 07:18:27;;;;;;;;;;;17.70;99.90;;;;;;4997268;28;19925;-83
2022/06/15 07:20:53;;;;;;;;;;;17.80;99.90;;;;;;4996970;28;20063;-80
2022/06/15 07:23:18;;;;;;;;;;;17.80;99.90;;;;;;4996313;28;19932;-81
2022/06/15 07:25:44;;;;;;;;;;;17.70;99.90;;;;;;5014057;28;19926;-80
2022/06/15 07:28:09;;;;;;;;;;;17.70;99.90;;;;;;4980737;28;20336;-80
2022/06/15 07:30:36;;;;;;;;;;;17.70;99.90;;;;;;4997485;28;19972;-81
2022/06/15 07:33:02;;;;;;;;;;;17.70;99.90;;;;;;4996903;28;19933;-81
2022/06/15 07:35:30;;;;;;;;;;;17.70;99.90;;;;;;4996509;28;19926;-83
2022/06/15 07:37:55;;;;;;;;;;;17.70;99.90;;;;;;4996893;28;19927;-82
2022/06/15 07:40:22;;;;;;;;;;;17.80;99.90;;;;;;4996852;28;19926;-80
2022/06/15 07:42:48;;;;;;;;;;;17.80;99.90;;;;;;5012704;28;19925;-79
2022/06/15 07:45:14;;;;;;;;;;;17.90;99.90;;;;;;5012939;28;20418;-81
2022/06/15 07:50:25;;;;;;;;;;;17.90;99.90;;;;;;5013083;28;19987;-81
2022/06/15 07:52:51;;;;;;;;;;;18.00;99.90;;;;;;5012633;28;19929;-80
2022/06/15 07:55:19;;;;;;;;;;;18.10;99.90;;;;;;5012972;28;20357;-81
2022/06/15 07:57:46;;;;;;;;;;;18.00;99.90;;;;;;5012888;28;19929;-81
2022/06/15 08:00:12;;;;;;;;;;;18.20;99.90;;;;;;4980578;28;19977;-81
2022/06/15 08:02:37;;;;;;;;;;;18.20;99.90;;;;;;5013151;28;19933;-81
2022/06/15 08:05:03;;;;;;;;;;;18.30;99.90;;;;;;5016799;28;19925;-81
2022/06/15 08:07:29;;;;;;;;;;;18.30;99.90;;;;;;5001249;28;19926;-81
2022/06/15 08:09:54;;;;;;;;;;;18.40;99.90;;;;;;5000347;28;19943;-81
2022/06/15 08:12:23;;;;;;;;;;;18.40;99.90;;;;;;5016657;28;19929;-81
2022/06/15 08:14:48;;;;;;;;;;;18.40;99.90;;;;;;5016635;28;19926;-81
2022/06/15 08:17:19;;;;;;;;;;;18.60;99.90;;;;;;5016587;28;19933;-81
2022/06/15 08:19:47;;;;;;;;;;;18.70;99.90;;;;;;5000347;28;20353;-81
2022/06/15 08:22:13;;;;;;;;;;;18.80;99.90;;;;;;5018016;28;19932;-81
2022/06/15 08:24:39;;;;;;;;;;;18.80;99.90;;;;;;4983270;28;19929;-81
2022/06/15 08:27:05;;;;;;;;;;;19.10;99.90;;;;;;5016435;28;20085;-81
2022/06/15 08:29:32;;;;;;;;;;;19.20;99.90;;;;;;5016632;28;20379;-81
2022/06/15 08:31:58;;;;;;;;;;;19.30;99.90;;;;;;5016360;28;20270;-80
2022/06/15 08:34:25;;;;;;;;;;;19.20;99.90;;;;;;4984450;28;19929;-81
2022/06/15 08:36:50;;;;;;;;;;;19.20;99.90;;;;;;4999922;28;20384;-81
2022/06/15 08:39:16;;;;;;;;;;;19.10;99.90;;;;;;4984413;28;19932;-82
2022/06/15 08:41:47;;;;;;;;;;;18.90;99.90;;;;;;5000104;28;20361;-81
2022/06/15 08:44:18;;;;;;;;;;;18.80;99.90;;;;;;5016437;28;19925;-81
2022/06/15 08:46:47;;;;;;;;;;;18.80;99.90;;;;;;5000001;28;19931;-81
2022/06/15 08:49:12;;;;;;;;;;;18.70;99.90;;;;;;4999924;28;20079;-81
2022/06/15 08:51:40;;;;;;;;;;;18.70;99.90;;;;;;4999407;28;20032;-80
2022/06/15 08:54:18;;;;;;;;;;;18.70;99.90;;;;;;5016166;28;20032;-82
2022/06/15 08:56:45;;;;;;;;;;;18.70;99.90;;;;;;5016177;28;20373;-81
2022/06/15 08:59:18;;;;;;;;;;;18.60;99.90;;;;;;4999502;28;19929;-81
2022/06/15 09:02:02;;;;;;;;;;;18.50;99.90;;;;;;5000236;28;19932;-81
2022/06/15 09:04:34;;;;;;;;;;;18.40;99.90;;;;;;4999299;28;20365;-81
2022/06/15 09:07:06;;;;;;;;;;;18.50;99.90;;;;;;5016037;28;19926;-81
2022/06/15 09:09:40;;;;;;;;;;;18.60;99.90;;;;;;4998992;28;19925;-80
2022/06/15 09:15:14;;;;;;;;;;;18.50;99.90;;;;;;5015560;28;19929;-81
2022/06/15 09:17:40;;;;;;;;;;;18.60;99.90;;;;;;4999930;28;19921;-81
2022/06/15 09:20:08;;;;;;;;;;;18.90;99.90;;;;;;4999091;28;19990;-81
2022/06/15 09:22:37;;;;;;;;;;;19.20;99.90;;;;;;4999086;28;20281;-81
2022/06/15 09:25:14;;;;;;;;;;;19.40;99.90;;;;;;4999027;28;20273;-80
2022/06/15 09:27:44;;;;;;;;;;;19.60;99.90;;;;;;5016216;28;20273;-81
2022/06/15 09:30:18;;;;;;;;;;;19.80;99.90;;;;;;5015894;28;19925;-82
2022/06/15 09:32:49;;;;;;;;;;;20.00;99.90;;;;;;5015285;28;19925;-81
2022/06/15 09:35:18;;;;;;;;;;;20.00;99.90;;;;;;5015435;28;19926;-81
2022/06/15 09:37:49;;;;;;;;;;;19.90;99.90;;;;;;4998828;28;20379;-81
2022/06/15 09:40:15;;;;;;;;;;;19.80;99.90;;;;;;5015053;28;20285;-81
2022/06/15 09:42:55;;;;;;;;;;;19.70;99.90;;;;;;4998765;28;19929;-81
2022/06/15 09:45:27;;;;;;;;;;;19.80;99.90;;;;;;4999424;28;20016;-81
2022/06/15 09:48:10;;;;;;;;;;;20.10;99.90;;;;;;4998626;28;20371;-80
2022/06/15 09:50:58;;;;;;;;;;;20.20;99.90;;;;;;4998793;28;19925;-80
2022/06/15 09:53:33;;;;;;;;;;;20.40;99.90;;;;;;5014026;28;20281;-81
2022/06/15 09:56:06;;;;;;;;;;;20.60;99.90;;;;;;5014755;28;19977;-81
2022/06/15 09:58:37;;;;;;;;;;;20.90;99.90;;;;;;4998375;28;19926;-81
2022/06/15 10:01:05;;;;;;;;;;;21.10;99.90;;;;;;5014634;28;20388;-81
2022/06/15 10:03:32;;;;;;;;;;;21.20;99.90;;;;;;5014839;28;19929;-81
2022/06/15 10:06:04;;;;;;;;;;;21.10;99.90;;;;;;4999008;28;20309;-81
2022/06/15 10:08:30;;;;;;;;;;;21.10;99.90;;;;;;4998452;28;19931;-81
2022/06/15 10:10:57;;;;;;;;;;;21.20;99.90;;;;;;4997785;28;19937;-82
2022/06/15 10:13:26;;;;;;;;;;;21.30;99.90;;;;;;4998314;28;19926;-81
2022/06/15 10:15:54;;;;;;;;;;;21.50;99.90;;;;;;5014662;28;19929;-81
2022/06/15 10:18:20;;;;;;;;;;;21.50;99.90;;;;;;5015172;28;19925;-81
2022/06/15 10:20:58;;;;;;;;;;;21.40;99.90;;;;;;4997756;28;19932;-81
2022/06/15 10:23:31;;;;;;;;;;;21.50;99.90;;;;;;5014403;28;19972;-81
2022/06/15 10:25:57;;;;;;;;;;;21.70;99.90;;;;;;4998744;28;20000;-81
2022/06/15 10:28:25;;;;;;;;;;;21.70;99.90;;;;;;4997857;28;20391;-81
2022/06/15 10:31:02;;;;;;;;;;;21.80;99.90;;;;;;5013900;28;19929;-81
2022/06/15 10:33:35;;;;;;;;;;;21.80;99.90;;;;;;5014390;28;19926;-81
2022/06/15 10:36:01;;;;;;;;;;;22.00;99.90;;;;;;4998073;28;19998;-81
2022/06/15 10:38:27;;;;;;;;;;;22.10;99.90;;;;;;5014227;28;19969;-81
2022/06/15 10:43:45;;;;;;;;;;;22.00;98.30;;;;;;5014217;28;19973;-81
2022/06/15 10:46:10;;;;;;;;;;;22.10;99.90;;;;;;4997853;28;19980;-81
2022/06/15 10:48:39;;;;;;;;;;;22.20;99.90;;;;;;5013816;28;19933;-81
2022/06/15 10:51:09;;;;;;;;;;;22.20;99.90;;;;;;5013667;28;20362;-81
2022/06/15 10:53:38;;;;;;;;;;;22.20;99.90;;;;;;4997665;28;19925;-81
2022/06/15 11:04:25;;;;;;;;;;;22.30;99.90;;;;;;5013836;28;19928;-82
2022/06/15 11:06:53;;;;;;;;;;;22.30;99.90;;;;;;4997173;28;19933;-81
2022/06/15 11:09:18;;;;;;;;;;;22.50;99.90;;;;;;5013538;28;19969;-81
2022/06/15 11:11:44;;;;;;;;;;;22.60;99.90;;;;;;4997597;28;20348;-81
2022/06/15 11:14:15;;;;;;;;;;;22.70;99.90;;;;;;5013130;28;20266;-81
2022/06/15 11:19:26;;;;;;;;;;;22.80;99.90;;;;;;4999756;28;19929;-81
2022/06/15 11:21:52;;;;;;;;;;;22.70;99.90;;;;;;4997239;28;19968;-81
2022/06/15 11:24:20;;;;;;;;;;;22.70;99.90;;;;;;4996602;28;19965;-81
2022/06/15 11:26:55;;;;;;;;;;;22.80;99.90;;;;;;4996857;28;19932;-80
2022/06/15 11:29:39;;;;;;;;;;;22.70;99.90;;;;;;5013275;28;20024;-81
2022/06/15 11:32:27;;;;;;;;;;;23.00;99.90;;;;;;5012846;28;19925;-81
2022/06/15 11:35:13;;;;;;;;;;;23.30;99.90;;;;;;4997109;28;19948;-81
2022/06/15 11:37:42;;;;;;;;;;;23.60;99.90;;;;;;5012740;28;20296;-81
2022/06/15 11:40:18;;;;;;;;;;;23.90;99.90;;;;;;4996717;28;19977;-80
2022/06/15 11:42:53;;;;;;;;;;;24.20;99.90;;;;;;4996700;28;19937;-81
2022/06/15 11:45:22;;;;;;;;;;;24.70;99.10;;;;;;5013415;28;19925;-81
2022/06/15 11:47:57;;;;;;;;;;;25.00;96.20;;;;;;5012966;28;19932;-81
2022/06/15 11:50:28;;;;;;;;;;;25.10;95.80;;;;;;5012838;28;20341;-82
2022/06/15 11:53:01;;;;;;;;;;;25.20;92.10;;;;;;5012926;28;19925;-81
2022/06/15 11:55:29;;;;;;;;;;;25.20;90.40;;;;;;4996542;28;20399;-82
2022/06/15 11:58:04;;;;;;;;;;;25.40;93.30;;;;;;4996485;28;19980;-81
2022/06/15 12:00:48;;;;;;;;;;;25.50;88.00;;;;;;4996794;28;20020;-81
2022/06/15 12:03:23;;;;;;;;;;;25.80;89.00;;;;;;4997209;28;19937;-82
2022/06/15 12:05:52;;;;;;;;;;;26.00;87.10;;;;;;4996462;28;19925;-82
2022/06/15 12:08:23;;;;;;;;;;;26.20;85.20;;;;;;4997256;28;19926;-81
2022/06/15 12:10:51;;;;;;;;;;;26.20;84.10;;;;;;5013428;28;20011;-81
2022/06/15 12:13:24;;;;;;;;;;;26.30;80.20;;;;;;5013052;28;19929;-81
2022/06/15 12:15:50;;;;;;;;;;;26.50;74.70;;;;;;5013029;28;19987;-81
2022/06/15 12:18:31;;;;;;;;;;;26.70;75.20;;;;;;5012449;28;19926;-81
2022/06/15 12:21:00;;;;;;;;;;;26.80;80.60;;;;;;4996633;28;19949;-81
2022/06/15 12:23:44;;;;;;;;;;;26.70;73.50;;;;;;5012305;28;19933;-81
2022/06/15 12:26:26;;;;;;;;;;;26.80;74.60;;;;;;5013435;28;19980;-82
2022/06/15 12:29:16;;;;;;;;;;;27.00;71.40;;;;;;5012924;28;20301;-81
2022/06/15 12:31:49;;;;;;;;;;;27.20;74.60;;;;;;4996272;28;19976;-82
2022/06/15 12:34:18;;;;;;;;;;;27.30;72.10;;;;;;4996341;28;19929;-82
2022/06/15 12:36:50;;;;;;;;;;;27.50;70.80;;;;;;5012507;28;19933;-81
2022/06/15 12:39:21;;;;;;;;;;;27.60;66.90;;;;;;4997042;28;19983;-82
2022/06/15 12:44:38;;;;;;;;;;;27.90;60.80;;;;;;5012210;28;19976;-82
2022/06/15 12:47:05;;;;;;;;;;;27.90;62.40;;;;;;5012453;28;19925;-82
2022/06/15 12:49:38;;;;;;;;;;;28.10;67.10;;;;;;5012539;28;20020;-82
2022/06/15 12:52:16;;;;;;;;;;;28.20;61.60;;;;;;5015755;28;19921;-82
2022/06/15 12:55:00;;;;;;;;;;;28.30;58.50;;;;;;5016668;28;19929;-82
2022/06/15 12:57:41;;;;;;;;;;;28.30;56.00;;;;;;5016152;28;19925;-82
2022/06/15 13:00:30;;;;;;;;;;;28.40;58.80;;;;;;4999568;28;20391;-82
2022/06/15 13:03:15;;;;;;;;;;;28.50;58.00;;;;;;5014909;28;19925;-82
2022/06/15 13:05:40;;;;;;;;;;;28.60;57.40;;;;;;5016004;28;19979;-82
2022/06/15 13:08:14;;;;;;;;;;;28.80;56.10;;;;;;5015956;28;20024;-81
2022/06/15 13:10:55;;;;;;;;;;;28.80;55.30;;;;;;4999173;28;20067;-82
2022/06/15 13:13:35;;;;;;;;;;;29.00;55.90;;;;;;4999356;28;20269;-82
2022/06/15 13:16:09;;;;;;;;;;;28.90;52.50;;;;;;5015302;28;19936;-81
2022/06/15 13:18:52;;;;;;;;;;;29.00;56.40;;;;;;4999484;28;19933;-83
2022/06/15 13:21:18;;;;;;;;;;;29.00;54.80;;;;;;4999421;28;19932;-82
2022/06/15 13:23:58;;;;;;;;;;;29.10;51.20;;;;;;4998783;28;19925;-82
2022/06/15 13:26:36;;;;;;;;;;;29.20;53.30;;;;;;5015421;28;20500;-81
2022/06/15 13:29:03;;;;;;;;;;;29.20;52.50;;;;;;4999814;28;19932;-82
2022/06/15 13:31:44;;;;;;;;;;;29.40;49.90;;;;;;4998529;28;20049;-81
2022/06/15 13:34:11;;;;;;;;;;;29.60;52.90;;;;;;5015519;28;19925;-82
2022/06/15 13:36:36;;;;;;;;;;;29.90;49.60;;;;;;5015464;28;20365;-82
2022/06/15 13:39:22;;;;;;;;;;;29.90;49.60;;;;;;4998858;28;19933;-82
2022/06/15 13:42:08;;;;;;;;;;;30.10;48.60;;;;;;4998599;28;20021;-82
2022/06/15 13:44:47;;;;;;;;;;;30.20;47.40;;;;;;5015629;28;19925;-81
2022/06/15 13:47:12;;;;;;;;;;;30.40;48.10;;;;;;5015765;28;19926;-82
2022/06/15 13:49:40;;;;;;;;;;;30.70;47.60;;;;;;4998591;28;19932;-82
2022/06/15 13:52:08;;;;;;;;;;;30.50;44.10;;;;;;4982916;28;19932;-81
2022/06/15 13:54:51;;;;;;;;;;;30.60;44.80;;;;;;4998573;28;19926;-82
2022/06/15 13:57:26;;;;;;;;;;;30.70;45.60;;;;;;4999320;28;20267;-82
2022/06/15 14:00:10;;;;;;;;;;;31.00;44.70;;;;;;5015489;28;20277;-82
2022/06/15 14:02:43;;;;;;;;;;;31.30;46.00;;;;;;4998064;28;19976;-82
2022/06/15 14:05:27;;;;;;;;;;;31.50;45.90;;;;;;5015006;28;19932;-82
2022/06/15 14:08:22;;;;;;;;;;;31.60;42.10;;;;;;4998963;28;19925;-82
2022/06/15 14:11:03;;;;;;;;;;;31.60;44.20;;;;;;4997299;28;19964;-82
2022/06/15 14:13:48;;;;;;;;;;;31.50;40.80;;;;;;4999030;28;20214;-82
2022/06/15 14:16:13;;;;;;;;;;;31.40;40.70;;;;;;5014401;28;20365;-82
2022/06/15 14:19:02;;;;;;;;;;;31.60;43.60;;;;;;4998092;28;20029;-82
2022/06/15 14:21:36;;;;;;;;;;;31.90;43.30;;;;;;4997289;28;19925;-82
2022/06/15 14:24:18;;;;;;;;;;;32.10;42.70;;;;;;4998277;28;19948;-82
2022/06/15 14:26:46;;;;;;;;;;;32.20;41.50;;;;;;5013915;28;19926;-82
2022/06/15 14:29:12;;;;;;;;;;;32.20;43.40;;;;;;5014172;28;20353;-82
2022/06/15 14:31:37;;;;;;;;;;;32.20;42.80;;;;;;4997817;28;20016;-81
2022/06/15 14:34:09;;;;;;;;;;;32.10;40.50;;;;;;4997755;28;20309;-81
2022/06/15 14:36:35;;;;;;;;;;;32.20;40.80;;;;;;5014146;28;20321;-81
2022/06/15 14:39:08;;;;;;;;;;;32.40;41.10;;;;;;5013964;28;20359;-82
2022/06/15 14:41:35;;;;;;;;;;;32.60;40.20;;;;;;4998458;28;19929;-82
2022/06/15 14:44:03;;;;;;;;;;;32.70;38.70;;;;;;4997565;28;19988;-81
2022/06/15 14:46:55;;;;;;;;;;;33.00;39.80;;;;;;4997800;28;19926;-81
2022/06/15 14:49:25;;;;;;;;;;;33.10;38.70;;;;;;5013514;28;19926;-82
2022/06/15 14:51:50;;;;;;;;;;;33.00;38.00;;;;;;5013759;28;19925;-82
2022/06/15 14:54:19;;;;;;;;;;;32.90;39.20;;;;;;4997453;28;19933;-81